Meteo Giornale » Osservazioni meteo Italia » Bari-Palese Macchie

ore: 00:50 - Osservazioni Meteo Bari-Palese Macchie
Lat. 41° 8' N Lon. 16° 47' E Alt. 34 metri s.l.m.

sereno Europe/Rome

7 °C

Sereno

Temp. 24 Ore

1 °C

15 °C

Sud-Ovest

7.4 Km/h

Dew point 4 °C

Umidità 81 %

Visibilità  10 Km

Il sole sorge alle ore 06:19

Il sole tramonta alle ore 17:49

Data e Ora Cielo e Fenomeni T °C DP °C Um. % Pres. hPa Vis. km Vento km/h
Oggi h: 00:50 sereno Sereno 7 4 81 1019 10 SO 7.4
Ieri h: 23:50 sereno Sereno 5 3 86 1019 10 N 1.8
Ieri h: 23:20 sereno Sereno 7 4 81 1020 10 N 5.5
Ieri h: 22:50 sereno Sereno 9 4 70 1019 10 N 3.7
Ieri h: 22:20 sereno Sereno 8 4 75 1020 10 S/SO 11.1
Ieri h: 21:50 sereno Sereno 9 5 75 1020 10 SO 13
Ieri h: 20:50 sereno Sereno 10 4 66 1020 10 S 13
Ieri h: 19:50 sereno Sereno 10 3 61 1020 10 S 7.4
Ieri h: 19:20 sereno Sereno 11 3 57 1020 10 S 7.4
Ieri h: 18:50 sereno Sereno 11 3 57 1020 10 S 7.4
Ieri h: 18:20 sereno Sereno 11 8 81 1020 10 SE 9.3
Ieri h: 17:50 sereno Sereno 12 8 76 1020 10 E 13
Ieri h: 17:20 sereno Sereno 13 8 71 1020 10 E 14.8
Ieri h: 16:50 sereno Sereno 13 9 76 1021 10 E 14.8
Ieri h: 16:20 sereno Sereno 14 10 76 1021 10 E/NE 16.7
Ieri h: 14:50 sereno Sereno 15 4 47 1022 10 E 14.8
Ieri h: 14:20 sereno Sereno 14 4 50 1022 10 E/NE 14.8
Ieri h: 13:50 sereno Sereno 14 5 54 1022 10 E/NE 18.5
Ieri h: 13:20 sereno Sereno 14 6 58 1023 10 E/NE 16.7
Ieri h: 12:50 sereno Sereno 14 8 67 1023 10 E/NE 14.8
Ieri h: 12:20 sereno Sereno 15 7 58 1024 10 NE 11.1
Ieri h: 10:50 sereno Sereno 14 8 67 1025 10 E 7.4
Ieri h: 09:20 poco_nuvoloso Poco Nuvoloso 12 7 71 1026 10 N 1.8
Ieri h: 08:50 nebbia Banco di Nebbia 11 7 76 1026 5 N 3.7
Ieri h: 08:20 nebbia Banco di Nebbia 9 6 81 1026 5 N 3.7
Ieri h: 07:50 nebbia Banco di Nebbia 6 4 86 1026 10 SO 7.4
Ieri h: 07:20 nebbia Banco di Nebbia 3 2 93 1026 2 SO 7.4
Ieri h: 06:50 nebbia Banco di Nebbia 2 1 93 1026 0.5 SO 9.3
Ieri h: 06:20 foschia Foschia 2 1 93 1026 3 SO 9.3
Ieri h: 05:50 nuvoloso Nuvoloso 3 2 93 1026 10 S/SO 9.3
Ieri h: 05:20 sereno Sereno 2 1 93 1026 10 S/SO 9.3
Ieri h: 04:50 sereno Sereno 1 0 93 1026 10 SO 11.1
Ieri h: 03:50 sereno Sereno 2 1 93 1027 10 O/SO 9.3
Ieri h: 02:50 sereno Sereno 2 0 86 1027 10 O/SO 9.3
Ieri h: 02:20 sereno Sereno 3 1 86 1027 10 SO 9.3
Ieri h: 01:50 sereno Sereno 2 0 86 1027 10 O/SO 11.1
Ieri h: 01:20 sereno Sereno 2 1 93 1028 10 SO 9.3
Ieri h: 00:50 sereno Sereno 3 1 86 1028 10 S/SO 9.3